Decoded Metar for LFMP (Perpignan in FRANCE) (IATA:PGF) | Meteo·Mobile Aviation Weather
aviador You're here:

LFMP Decoded Metar

Perpignan in FRANCE
Report Time2019-10-19 22:30:00
UTC Time2019-10-19 22:59:59
Flight Rules vfr VFR
Wind170° at 07 kt
W.Decomp.*RWY 15: 6.6 kt HW 2.4 kt RCW
RWY 13: 5.4 kt HW 4.5 kt RCW
Visibility9999 m
Phenomena:N/A
Clouds:N/A
Expected CloudBase > 3,600 ft AGL from Temp-Dew spread
CeilingNone
Temp21°C (ISA +6)
Dew Point12°C (57% RH)
AAT19.1°C
QNH1004 hPa
Density Alt1,388 ft
Elevation157 ft
Report Wrong Elevation
Raw Report
LFMP 192230Z AUTO 17007KT 120V210 CAVOK 21/12 Q1004=

Extra information for LFMP:More info

Metar Taf Metar & Taf Last 4 Metars F.Rules Stats Wind Profile Meteogram Temp Stats Airport Information Weather charts Add Link Nearby VenuesMetar ALERT Operation Metar Decoded Social comments